createdAt,value
2018-05-17T00:02:13.309Z,90.90
2018-05-17T00:04:40.758Z,90.90
2018-05-17T00:07:08.220Z,91.00
2018-05-17T00:09:35.658Z,91.00
2018-05-17T00:12:03.126Z,91.00
2018-05-17T00:14:30.585Z,91.00
2018-05-17T00:16:58.042Z,91.00
2018-05-17T00:19:25.541Z,91.00
2018-05-17T00:21:52.966Z,91.00
2018-05-17T00:24:20.413Z,91.10
2018-05-17T00:26:47.874Z,91.10
2018-05-17T00:29:15.331Z,91.10
2018-05-17T00:31:42.789Z,91.10
2018-05-17T00:34:10.231Z,91.10
2018-05-17T00:36:37.717Z,91.10
2018-05-17T00:39:05.996Z,91.10
2018-05-17T00:41:33.448Z,91.10
2018-05-17T00:44:00.905Z,91.10
2018-05-17T00:46:29.126Z,91.40
2018-05-17T00:48:56.596Z,91.20
2018-05-17T00:51:24.041Z,91.20
2018-05-17T00:53:51.513Z,91.20
2018-05-17T00:56:18.949Z,91.30
2018-05-17T00:58:46.412Z,91.30
2018-05-17T01:01:13.861Z,91.30
2018-05-17T01:03:41.315Z,91.30
2018-05-17T01:06:08.761Z,91.40
2018-05-17T01:08:36.981Z,91.30
2018-05-17T01:11:04.478Z,91.30
2018-05-17T01:13:31.925Z,91.40
2018-05-17T01:15:59.373Z,91.40
2018-05-17T01:18:26.850Z,91.50
2018-05-17T01:20:55.069Z,91.50
2018-05-17T01:23:22.522Z,91.50
2018-05-17T01:25:49.970Z,91.60
2018-05-17T01:28:17.416Z,91.60
2018-05-17T01:30:44.862Z,91.60
2018-05-17T01:33:12.313Z,91.60
2018-05-17T01:35:39.757Z,91.60
2018-05-17T01:38:19.913Z,91.70
2018-05-17T01:40:48.126Z,91.70
2018-05-17T01:43:15.765Z,91.70
2018-05-17T01:45:43.442Z,91.70
2018-05-17T01:48:10.896Z,92.00
2018-05-17T01:50:38.352Z,91.80
2018-05-17T01:53:05.807Z,91.80
2018-05-17T01:55:33.245Z,91.80
2018-05-17T01:58:00.702Z,91.80
2018-05-17T02:00:28.146Z,91.80
2018-05-17T02:02:56.353Z,91.90
2018-05-17T02:05:23.805Z,91.90
2018-05-17T02:07:51.256Z,91.90
2018-05-17T02:10:18.713Z,91.90
2018-05-17T02:12:46.170Z,92.00
2018-05-17T02:15:13.626Z,92.00
2018-05-17T02:17:41.073Z,92.00
2018-05-17T02:20:08.529Z,92.00
2018-05-17T02:22:35.991Z,92.00
2018-05-17T02:25:03.456Z,92.00
2018-05-17T02:27:30.908Z,92.00
2018-05-17T02:29:58.361Z,92.10
2018-05-17T02:32:25.809Z,92.10
2018-05-17T02:34:53.269Z,92.10
2018-05-17T02:37:20.719Z,92.10
2018-05-17T02:39:48.174Z,92.10
2018-05-17T02:42:15.622Z,92.10
2018-05-17T02:44:43.073Z,92.10
2018-05-17T02:47:10.517Z,92.20
2018-05-17T02:49:38.752Z,92.20
2018-05-17T02:52:06.198Z,92.30
2018-05-17T02:54:33.640Z,92.30
2018-05-17T02:57:01.087Z,92.30
2018-05-17T02:59:28.554Z,92.30
2018-05-17T03:01:55.992Z,92.30
2018-05-17T03:04:23.451Z,92.30
2018-05-17T03:06:50.908Z,92.40
2018-05-17T03:09:18.362Z,92.40
2018-05-17T03:11:45.805Z,92.40
2018-05-17T03:14:13.253Z,92.40
2018-05-17T03:16:40.710Z,92.40
2018-05-17T03:19:08.170Z,92.50
2018-05-17T03:21:35.634Z,92.50
2018-05-17T03:24:03.092Z,92.50
2018-05-17T03:26:30.533Z,92.50
2018-05-17T03:28:57.990Z,92.50
2018-05-17T03:31:25.585Z,92.50
2018-05-17T03:33:53.046Z,92.50
2018-05-17T03:36:20.511Z,92.50
2018-05-17T03:38:47.958Z,92.60
2018-05-17T03:41:15.667Z,92.60
2018-05-17T03:43:43.893Z,92.60
2018-05-17T03:46:11.336Z,92.90
2018-05-17T03:48:38.782Z,92.70
2018-05-17T03:51:06.235Z,92.70
2018-05-17T03:53:33.683Z,92.70
2018-05-17T03:56:01.133Z,92.70
2018-05-17T03:58:28.568Z,93.00
2018-05-17T04:04:13.493Z,92.70
2018-05-17T04:06:41.857Z,92.80
2018-05-17T04:09:09.346Z,92.70
2018-05-17T04:11:36.783Z,92.80
2018-05-17T04:14:04.229Z,92.80
2018-05-17T04:16:31.768Z,92.80
2018-05-17T04:18:59.209Z,92.80
2018-05-17T04:21:27.600Z,92.90
2018-05-17T04:23:55.136Z,92.80
2018-05-17T04:26:23.349Z,92.90
2018-05-17T04:28:51.031Z,92.90
2018-05-17T04:31:19.932Z,92.90
2018-05-17T04:33:47.362Z,92.90
2018-05-17T04:36:14.812Z,93.00
2018-05-17T04:38:42.251Z,93.00
2018-05-17T04:41:09.720Z,93.30
2018-05-17T04:43:37.163Z,93.00
2018-05-17T04:46:04.608Z,93.00
2018-05-17T04:48:32.054Z,93.00
2018-05-17T04:51:00.269Z,93.20
2018-05-17T04:53:27.702Z,93.10
2018-05-17T04:55:55.241Z,93.10
2018-05-17T04:58:22.608Z,93.20
2018-05-17T05:00:50.066Z,93.20
2018-05-17T05:03:17.505Z,93.20
2018-05-17T05:05:45.726Z,93.20
2018-05-17T05:08:13.164Z,93.20
2018-05-17T05:10:40.618Z,93.20
2018-05-17T05:13:08.068Z,93.20
2018-05-17T05:15:35.518Z,93.20
2018-05-17T05:18:02.972Z,93.20
2018-05-17T05:20:31.188Z,93.20
2018-05-17T05:22:58.633Z,93.20
2018-05-17T05:25:26.081Z,93.30
2018-05-17T05:27:53.518Z,93.30
2018-05-17T05:30:20.959Z,93.20
2018-05-17T05:32:48.416Z,93.30
2018-05-17T05:35:16.622Z,93.30
2018-05-17T05:37:44.073Z,93.30
2018-05-17T05:40:11.519Z,93.30
2018-05-17T05:42:38.980Z,93.30
2018-05-17T05:45:06.441Z,93.30
2018-05-17T05:47:33.904Z,93.30
2018-05-17T05:50:01.343Z,93.60
2018-05-17T05:52:28.796Z,93.40
2018-05-17T05:54:56.249Z,93.40
2018-05-17T05:57:23.722Z,93.40
2018-05-17T05:59:51.150Z,93.40
2018-05-17T06:02:18.632Z,93.40
2018-05-17T06:04:46.065Z,93.50
2018-05-17T06:07:13.509Z,93.50
2018-05-17T06:09:40.953Z,93.50
2018-05-17T06:12:09.171Z,93.50
2018-05-17T06:14:36.610Z,93.50
2018-05-17T06:17:04.071Z,93.50
2018-05-17T06:19:31.501Z,93.50
2018-05-17T06:21:58.966Z,93.60
2018-05-17T06:24:26.408Z,93.50
2018-05-17T06:26:54.629Z,93.60
2018-05-17T06:29:22.073Z,93.60
2018-05-17T06:31:49.533Z,93.60
2018-05-17T06:34:16.976Z,93.60
2018-05-17T06:36:44.466Z,93.60
2018-05-17T06:39:11.909Z,93.60
2018-05-17T06:41:39.364Z,93.70
2018-05-17T06:44:06.805Z,93.70
2018-05-17T06:46:34.258Z,93.70
2018-05-17T06:49:01.709Z,93.70
2018-05-17T06:51:29.172Z,93.70
2018-05-17T06:53:56.616Z,93.70
2018-05-17T06:56:24.051Z,93.70
2018-05-17T06:58:51.515Z,93.70
2018-05-17T07:01:18.998Z,93.80
2018-05-17T07:03:46.410Z,93.80
2018-05-17T07:06:14.619Z,93.80
2018-05-17T07:08:42.081Z,93.80
2018-05-17T07:11:09.549Z,93.80
2018-05-17T07:13:37.000Z,93.80
2018-05-17T07:16:04.453Z,93.80
2018-05-17T07:18:31.997Z,93.90
2018-05-17T07:20:59.351Z,93.90
2018-05-17T07:23:26.795Z,93.90
2018-05-17T07:25:54.233Z,93.90
2018-05-17T07:28:22.451Z,93.90
2018-05-17T07:30:49.889Z,93.90
2018-05-17T07:33:17.345Z,93.90
2018-05-17T07:35:44.784Z,93.90
2018-05-17T07:38:12.237Z,93.90
2018-05-17T07:40:39.694Z,93.90
2018-05-17T07:43:07.146Z,93.90
2018-05-17T07:45:34.601Z,93.90
2018-05-17T07:48:02.285Z,94.00
2018-05-17T07:50:29.718Z,93.90
2018-05-17T07:52:57.173Z,93.90
2018-05-17T07:55:24.614Z,93.90
2018-05-17T07:57:52.840Z,93.90
2018-05-17T08:00:20.289Z,93.90
2018-05-17T08:02:47.843Z,93.90
2018-05-17T08:05:15.280Z,93.90
2018-05-17T08:07:42.730Z,93.90
2018-05-17T08:10:10.172Z,93.90
2018-05-17T08:12:38.406Z,93.90
2018-05-17T08:15:05.865Z,93.90
2018-05-17T08:17:33.301Z,93.90
2018-05-17T08:20:00.758Z,93.90
2018-05-17T08:22:28.196Z,93.90
2018-05-17T08:24:55.642Z,93.90
2018-05-17T08:27:23.082Z,93.90
2018-05-17T08:29:51.301Z,93.90
2018-05-17T08:32:18.737Z,93.90
2018-05-17T08:34:46.194Z,93.90
2018-05-17T08:37:13.624Z,93.90
2018-05-17T08:39:41.081Z,93.90
2018-05-17T08:42:09.287Z,93.90
2018-05-17T08:44:36.741Z,93.90
2018-05-17T08:47:04.189Z,93.90
2018-05-17T08:49:31.643Z,93.90
2018-05-17T08:51:59.112Z,93.90
2018-05-17T08:54:26.554Z,93.90
2018-05-17T08:56:53.985Z,93.90
2018-05-17T08:59:21.436Z,93.90
2018-05-17T09:01:48.891Z,93.90
2018-05-17T09:04:16.340Z,93.90
2018-05-17T09:06:44.537Z,93.90
2018-05-17T09:09:11.989Z,93.90
2018-05-17T09:11:39.443Z,93.90
2018-05-17T09:14:06.906Z,93.90
2018-05-17T09:16:34.344Z,93.90
2018-05-17T09:19:01.805Z,93.90
2018-05-17T09:21:29.250Z,93.80
2018-05-17T09:23:57.497Z,93.90
2018-05-17T09:26:24.916Z,93.80
2018-05-17T09:28:52.371Z,93.90
2018-05-17T09:31:19.810Z,93.90
2018-05-17T09:33:47.248Z,93.90
2018-05-17T09:36:14.697Z,93.90
2018-05-17T09:38:42.913Z,93.90
2018-05-17T09:41:10.369Z,93.90
2018-05-17T09:43:38.578Z,93.90
2018-05-17T09:46:06.053Z,93.90
2018-05-17T09:48:34.276Z,93.90
2018-05-17T09:51:01.716Z,93.90
2018-05-17T09:53:29.167Z,93.90
2018-05-17T09:55:56.628Z,93.90
2018-05-17T09:58:24.083Z,93.90
2018-05-17T10:00:51.528Z,93.90
2018-05-17T10:03:18.973Z,93.90
2018-05-17T10:05:46.424Z,93.90
2018-05-17T10:08:13.878Z,93.90
2018-05-17T10:10:42.105Z,94.00
2018-05-17T10:13:09.540Z,94.00
2018-05-17T10:15:37.068Z,94.00
2018-05-17T10:18:04.466Z,94.10
2018-05-17T10:20:31.911Z,94.10
2018-05-17T10:22:59.380Z,94.10
2018-05-17T10:25:27.561Z,94.10
2018-05-17T10:27:55.013Z,94.10
2018-05-17T10:30:22.466Z,94.00
2018-05-17T10:32:49.900Z,94.10
2018-05-17T10:35:17.351Z,94.10
2018-05-17T10:37:44.790Z,94.20
2018-05-17T10:40:15.124Z,94.20
2018-05-17T10:42:42.578Z,94.20
2018-05-17T10:45:10.030Z,94.20
2018-05-17T10:47:37.460Z,94.20
2018-05-17T10:50:05.681Z,94.20
2018-05-17T10:52:33.135Z,94.20
2018-05-17T10:55:00.645Z,94.10
2018-05-17T10:57:28.083Z,94.10
2018-05-17T10:59:55.768Z,94.10
2018-05-17T11:02:23.989Z,94.00
2018-05-17T11:04:52.146Z,94.00
2018-05-17T11:07:19.597Z,94.00
2018-05-17T11:09:47.073Z,94.40
2018-05-17T11:12:14.580Z,94.20
2018-05-17T11:14:41.958Z,94.10
2018-05-17T11:17:09.405Z,94.10
2018-05-17T11:19:36.843Z,94.10
2018-05-17T11:22:05.063Z,94.10
2018-05-17T11:24:32.507Z,94.00
2018-05-17T11:26:59.970Z,94.00
2018-05-17T11:29:27.495Z,94.00
2018-05-17T11:31:54.985Z,94.10
2018-05-17T11:34:22.427Z,94.10
2018-05-17T11:36:49.878Z,94.00
2018-05-17T11:39:17.307Z,94.10
2018-05-17T11:41:45.524Z,94.00
2018-05-17T11:44:12.999Z,94.00
2018-05-17T11:46:40.409Z,94.00
2018-05-17T11:49:07.854Z,93.90
2018-05-17T11:51:35.307Z,93.90
2018-05-17T11:54:03.537Z,93.80
2018-05-17T11:56:30.987Z,93.80
2018-05-17T11:58:58.459Z,93.70
2018-05-17T12:01:26.718Z,93.70
2018-05-17T12:03:54.151Z,94.00
2018-05-17T12:06:21.605Z,93.80
2018-05-17T12:08:49.048Z,93.70
2018-05-17T12:11:16.589Z,93.70
2018-05-17T12:13:45.128Z,93.60
2018-05-17T12:16:12.573Z,93.60
2018-05-17T12:18:41.066Z,93.60
2018-05-17T12:21:08.914Z,93.60
2018-05-17T12:23:36.440Z,93.60
2018-05-17T12:26:03.905Z,93.60
2018-05-17T12:28:31.341Z,93.60
2018-05-17T12:30:58.875Z,93.60
2018-05-17T12:33:27.028Z,93.60
2018-05-17T12:35:54.561Z,93.60
2018-05-17T12:38:22.016Z,93.70
2018-05-17T12:40:49.461Z,93.60
2018-05-17T12:43:16.939Z,93.70
2018-05-17T12:45:44.368Z,93.70
2018-05-17T12:48:11.830Z,93.70
2018-05-17T12:50:39.257Z,93.70
2018-05-17T12:53:07.477Z,93.70
2018-05-17T12:55:34.920Z,93.70
2018-05-17T12:58:02.368Z,93.80
2018-05-17T13:00:29.803Z,93.80
2018-05-17T13:02:57.248Z,93.80
2018-05-17T13:05:25.452Z,93.80
2018-05-17T13:07:52.909Z,93.80
2018-05-17T13:10:20.357Z,93.80
2018-05-17T13:12:47.797Z,93.90
2018-05-17T13:15:15.229Z,93.90
2018-05-17T13:17:43.435Z,93.90
2018-05-17T13:20:10.872Z,93.90
2018-05-17T13:22:39.097Z,93.90
2018-05-17T13:25:06.532Z,93.90
2018-05-17T13:27:33.980Z,93.90
2018-05-17T13:30:01.760Z,93.90
2018-05-17T13:32:29.207Z,93.90
2018-05-17T13:34:56.648Z,93.90
2018-05-17T13:37:24.219Z,93.90
2018-05-17T13:39:51.524Z,93.90
2018-05-17T13:42:19.733Z,93.90
2018-05-17T13:44:47.170Z,93.80
2018-05-17T13:47:15.388Z,93.90
2018-05-17T13:49:42.819Z,93.90
2018-05-17T13:52:10.265Z,93.90
2018-05-17T13:54:37.717Z,93.90
2018-05-17T13:57:05.159Z,94.00
2018-05-17T13:59:33.368Z,94.00
2018-05-17T14:02:00.860Z,94.00
2018-05-17T14:04:28.355Z,94.00
2018-05-17T14:06:55.736Z,94.00
2018-05-17T14:09:23.395Z,94.00
2018-05-17T14:11:50.827Z,94.00
2018-05-17T14:14:18.277Z,94.00
2018-05-17T14:16:46.476Z,94.20
2018-05-17T14:19:13.931Z,94.20
2018-05-17T14:21:41.367Z,94.10
2018-05-17T14:24:08.819Z,94.10
2018-05-17T14:26:36.258Z,94.10
2018-05-17T14:29:04.491Z,94.00
2018-05-17T14:31:31.937Z,94.00
2018-05-17T14:33:59.391Z,94.00
2018-05-17T14:36:26.824Z,93.90
2018-05-17T14:38:54.276Z,93.90
2018-05-17T14:41:21.713Z,94.00
2018-05-17T14:43:49.952Z,93.70
2018-05-17T14:46:17.402Z,93.70
2018-05-17T14:48:44.848Z,93.60
2018-05-17T14:51:12.291Z,93.60
2018-05-17T14:53:39.736Z,93.60
2018-05-17T14:56:07.191Z,93.60
2018-05-17T14:58:34.641Z,93.70
2018-05-17T15:01:02.092Z,93.70
2018-05-17T15:03:30.290Z,93.70
2018-05-17T15:06:02.886Z,93.70
2018-05-17T15:08:30.435Z,93.60
2018-05-17T15:10:59.343Z,93.60
2018-05-17T15:13:25.335Z,93.70
2018-05-17T15:15:52.780Z,93.80
2018-05-17T15:18:20.215Z,93.70
2018-05-17T15:20:47.665Z,93.70
2018-05-17T15:23:15.117Z,93.80
2018-05-17T15:25:42.577Z,93.80
2018-05-17T15:28:10.805Z,93.80
2018-05-17T15:30:38.257Z,93.80
2018-05-17T15:33:05.712Z,93.90
2018-05-17T15:35:33.147Z,93.80
2018-05-17T15:38:00.632Z,93.80
2018-05-17T15:40:28.083Z,93.80
2018-05-17T15:42:55.523Z,93.80
2018-05-17T15:45:22.976Z,93.80
2018-05-17T15:47:50.428Z,93.80
2018-05-17T15:50:17.869Z,93.80
2018-05-17T15:52:45.312Z,93.80
2018-05-17T15:55:12.764Z,93.80
2018-05-17T15:57:40.209Z,93.80
2018-05-17T16:00:08.436Z,93.90
2018-05-17T16:02:35.873Z,93.90
2018-05-17T16:05:03.327Z,93.90
2018-05-17T16:07:30.777Z,94.20
2018-05-17T16:09:58.237Z,93.90
2018-05-17T16:12:25.681Z,93.80
2018-05-17T16:14:53.269Z,93.80
2018-05-17T16:17:20.592Z,93.60
2018-05-17T16:19:48.036Z,93.60
2018-05-17T16:22:15.472Z,93.60
2018-05-17T16:24:43.691Z,93.50
2018-05-17T16:27:11.149Z,93.50
2018-05-17T16:29:38.592Z,93.50
2018-05-17T16:32:06.034Z,93.50
2018-05-17T16:34:33.583Z,93.50
2018-05-17T16:37:01.791Z,93.50
2018-05-17T16:39:29.235Z,93.50
2018-05-17T16:41:56.692Z,93.50
2018-05-17T16:44:24.153Z,93.50
2018-05-17T16:46:51.600Z,93.50
2018-05-17T16:49:19.048Z,93.40
2018-05-17T16:51:46.487Z,93.40
2018-05-17T16:54:14.785Z,93.40
2018-05-17T16:56:42.145Z,93.40
2018-05-17T16:59:09.626Z,93.40
2018-05-17T17:01:37.079Z,93.40
2018-05-17T17:04:04.516Z,93.30
2018-05-17T17:06:31.974Z,93.40
2018-05-17T17:08:59.492Z,93.30
2018-05-17T17:11:27.703Z,93.70
2018-05-17T17:13:55.143Z,93.40
2018-05-17T17:16:22.583Z,93.50
2018-05-17T17:18:50.028Z,93.40
2018-05-17T17:21:18.240Z,93.50
2018-05-17T17:23:45.695Z,93.50
2018-05-17T17:26:13.127Z,93.50
2018-05-17T17:28:40.551Z,93.60
2018-05-17T17:31:08.059Z,93.60
2018-05-17T17:33:35.494Z,93.60
2018-05-17T17:36:02.944Z,93.70
2018-05-17T17:38:31.152Z,93.70
2018-05-17T17:40:58.610Z,93.70
2018-05-17T17:43:26.056Z,93.80
2018-05-17T17:45:53.506Z,93.80
2018-05-17T17:48:20.949Z,93.80
2018-05-17T17:50:49.156Z,93.80
2018-05-17T17:53:16.596Z,93.80
2018-05-17T17:55:44.064Z,93.80
2018-05-17T17:58:11.528Z,94.10
2018-05-17T18:00:38.977Z,93.90
2018-05-17T18:03:06.417Z,93.90
2018-05-17T18:05:33.878Z,93.90
2018-05-17T18:08:01.332Z,93.90
2018-05-17T18:10:28.786Z,93.90
2018-05-17T18:12:57.218Z,94.00
2018-05-17T18:15:25.429Z,94.00
2018-05-17T18:17:52.873Z,94.00
2018-05-17T18:20:20.302Z,94.00
2018-05-17T18:22:48.517Z,94.00
2018-05-17T18:25:15.959Z,94.00
2018-05-17T18:27:44.180Z,94.10
2018-05-17T18:30:11.624Z,94.10
2018-05-17T18:32:39.158Z,94.10
2018-05-17T18:35:06.505Z,94.10
2018-05-17T18:37:33.952Z,94.10
2018-05-17T18:40:01.395Z,94.10
2018-05-17T18:42:28.869Z,94.10
2018-05-17T18:44:56.380Z,94.20
2018-05-17T18:47:23.745Z,94.20
2018-05-17T18:49:51.949Z,94.20
2018-05-17T18:52:19.406Z,94.20
2018-05-17T18:54:46.848Z,94.20
2018-05-17T18:57:14.302Z,94.20
2018-05-17T18:59:41.741Z,94.10
2018-05-17T19:02:09.280Z,94.10
2018-05-17T19:04:36.635Z,94.40
2018-05-17T19:07:04.171Z,94.10
2018-05-17T19:09:31.529Z,94.10
2018-05-17T19:11:58.980Z,94.00
2018-05-17T19:14:26.420Z,94.00
2018-05-17T19:16:54.645Z,94.00
2018-05-17T19:19:22.085Z,93.90
2018-05-17T19:21:49.546Z,93.90
2018-05-17T19:24:16.993Z,93.90
2018-05-17T19:26:44.453Z,93.80
2018-05-17T19:29:11.905Z,93.90
2018-05-17T19:31:39.422Z,93.80
2018-05-17T19:34:06.784Z,93.80
2018-05-17T19:36:34.995Z,93.70
2018-05-17T19:39:02.443Z,93.70
2018-05-17T19:41:29.887Z,93.70
2018-05-17T19:43:57.332Z,93.60
2018-05-17T19:46:25.535Z,93.50
2018-05-17T19:48:52.975Z,93.50
2018-05-17T19:51:20.407Z,93.40
2018-05-17T19:53:48.624Z,93.30
2018-05-17T19:56:16.061Z,93.30
2018-05-17T19:58:43.512Z,93.30
2018-05-17T20:01:10.940Z,93.30
2018-05-17T20:03:39.155Z,93.50
2018-05-17T20:06:06.608Z,93.30
2018-05-17T20:08:34.077Z,93.20
2018-05-17T20:11:01.507Z,93.10
2018-05-17T20:13:28.969Z,93.10
2018-05-17T20:15:56.458Z,93.10
2018-05-17T20:18:23.907Z,93.00
2018-05-17T20:20:51.357Z,93.00
2018-05-17T20:23:18.814Z,93.00
2018-05-17T20:25:46.255Z,92.90
2018-05-17T20:28:13.702Z,92.90
2018-05-17T20:30:41.145Z,92.90
2018-05-17T20:33:08.597Z,92.80
2018-05-17T20:35:36.042Z,92.80
2018-05-17T20:38:04.262Z,92.70
2018-05-17T20:40:31.707Z,92.70
2018-05-17T20:42:59.165Z,92.70
2018-05-17T20:45:26.610Z,92.70
2018-05-17T20:47:54.071Z,92.70
2018-05-17T20:50:21.507Z,92.60
2018-05-17T20:52:49.711Z,92.60
2018-05-17T20:55:17.180Z,92.50
2018-05-17T20:57:44.611Z,92.50
2018-05-17T21:00:12.057Z,92.50
2018-05-17T21:02:39.498Z,92.50
2018-05-17T21:05:07.014Z,92.50
2018-05-17T21:07:35.217Z,92.40
2018-05-17T21:10:03.439Z,92.30
2018-05-17T21:12:30.878Z,92.30
2018-05-17T21:14:58.348Z,92.30
2018-05-17T21:17:25.803Z,92.20
2018-05-17T21:19:54.721Z,92.20
2018-05-17T21:22:22.152Z,92.20
2018-05-17T21:24:49.921Z,92.10
2018-05-17T21:27:17.458Z,92.10
2018-05-17T21:29:44.848Z,92.10
2018-05-17T21:32:12.307Z,92.10
2018-05-17T21:34:39.760Z,92.10
2018-05-17T21:37:07.210Z,92.00
2018-05-17T21:39:34.677Z,92.10
2018-05-17T21:42:02.117Z,92.10
2018-05-17T21:44:29.553Z,92.00
2018-05-17T21:46:56.999Z,91.90
2018-05-17T21:49:24.454Z,91.90
2018-05-17T21:51:51.897Z,91.90
2018-05-17T21:54:19.350Z,91.90
2018-05-17T21:56:46.795Z,91.90
2018-05-17T21:59:14.250Z,91.90
2018-05-17T22:01:41.688Z,91.80
2018-05-17T22:04:09.908Z,91.90
2018-05-17T22:06:37.348Z,91.90
2018-05-17T22:09:05.730Z,91.80
2018-05-17T22:11:33.165Z,91.80
2018-05-17T22:14:01.383Z,91.80
2018-05-17T22:16:28.831Z,91.80
2018-05-17T22:18:56.280Z,91.80
2018-05-17T22:21:23.742Z,91.80
2018-05-17T22:23:51.172Z,91.80
2018-05-17T22:26:18.620Z,91.80
2018-05-17T22:28:46.824Z,91.80
2018-05-17T22:31:14.283Z,91.70
2018-05-17T22:33:41.720Z,91.70
2018-05-17T22:36:09.175Z,91.70
2018-05-17T22:38:36.600Z,91.70
2018-05-17T22:41:04.821Z,91.60
2018-05-17T22:43:32.258Z,91.60
2018-05-17T22:46:00.028Z,91.60
2018-05-17T22:48:28.229Z,91.60
2018-05-17T22:50:55.676Z,91.50
2018-05-17T22:53:23.120Z,91.50
2018-05-17T22:55:50.578Z,91.50
2018-05-17T22:58:30.666Z,91.50
2018-05-17T23:00:58.116Z,91.50
2018-05-17T23:03:25.553Z,91.40
2018-05-17T23:05:52.996Z,91.40
2018-05-17T23:08:20.440Z,91.40
2018-05-17T23:10:47.885Z,91.40
2018-05-17T23:13:15.335Z,91.40
2018-05-17T23:15:42.784Z,91.30
2018-05-17T23:18:10.230Z,91.30
2018-05-17T23:20:38.441Z,91.30
2018-05-17T23:23:05.879Z,91.20
2018-05-17T23:25:33.331Z,91.20
2018-05-17T23:28:00.776Z,91.10
2018-05-17T23:30:28.989Z,91.10
2018-05-17T23:32:56.432Z,91.10
2018-05-17T23:35:23.869Z,91.00
2018-05-17T23:37:51.326Z,91.00
2018-05-17T23:40:30.401Z,91.00
2018-05-17T23:42:57.844Z,90.90
2018-05-17T23:45:25.293Z,90.90
2018-05-17T23:47:52.746Z,90.90
2018-05-17T23:50:20.175Z,90.80
2018-05-17T23:52:47.635Z,90.80
2018-05-17T23:55:15.079Z,90.70
2018-05-17T23:57:42.534Z,90.60
